sensor_id;sensor_type;location;lat;lon;timestamp;P1;durP1;ratioP1;P2;durP2;ratioP2
17991;SDS011;9121;50.926;5.340;2024-02-26T00:00:11;1.83;;;1.33;;
17991;SDS011;9121;50.926;5.340;2024-02-26T00:02:40;3.43;;;1.60;;
17991;SDS011;9121;50.926;5.340;2024-02-26T00:05:07;2.93;;;1.50;;
17991;SDS011;9121;50.926;5.340;2024-02-26T00:07:34;3.30;;;1.67;;
17991;SDS011;9121;50.926;5.340;2024-02-26T00:10:01;4.00;;;2.43;;
17991;SDS011;9121;50.926;5.340;2024-02-26T00:12:29;4.27;;;1.60;;
17991;SDS011;9121;50.926;5.340;2024-02-26T00:14:56;2.87;;;1.40;;
17991;SDS011;9121;50.926;5.340;2024-02-26T00:17:24;1.60;;;1.37;;
17991;SDS011;9121;50.926;5.340;2024-02-26T00:19:52;4.30;;;1.63;;
17991;SDS011;9121;50.926;5.340;2024-02-26T00:22:19;4.53;;;1.57;;
17991;SDS011;9121;50.926;5.340;2024-02-26T00:24:47;2.43;;;1.40;;
17991;SDS011;9121;50.926;5.340;2024-02-26T00:27:14;1.60;;;1.20;;
17991;SDS011;9121;50.926;5.340;2024-02-26T00:29:40;3.47;;;1.50;;
17991;SDS011;9121;50.926;5.340;2024-02-26T00:32:07;2.73;;;1.77;;
17991;SDS011;9121;50.926;5.340;2024-02-26T00:34:34;5.50;;;1.80;;
17991;SDS011;9121;50.926;5.340;2024-02-26T00:37:03;5.43;;;1.53;;
17991;SDS011;9121;50.926;5.340;2024-02-26T00:39:30;4.53;;;1.70;;
17991;SDS011;9121;50.926;5.340;2024-02-26T00:41:57;8.33;;;1.93;;
17991;SDS011;9121;50.926;5.340;2024-02-26T00:44:24;3.30;;;1.40;;
17991;SDS011;9121;50.926;5.340;2024-02-26T00:46:51;6.67;;;1.83;;
17991;SDS011;9121;50.926;5.340;2024-02-26T00:49:17;6.23;;;2.00;;
17991;SDS011;9121;50.926;5.340;2024-02-26T00:51:44;3.57;;;1.63;;
17991;SDS011;9121;50.926;5.340;2024-02-26T00:54:13;3.90;;;1.70;;
17991;SDS011;9121;50.926;5.340;2024-02-26T00:56:40;3.50;;;1.90;;
17991;SDS011;9121;50.926;5.340;2024-02-26T00:59:06;4.90;;;1.97;;
17991;SDS011;9121;50.926;5.340;2024-02-26T01:01:33;4.43;;;1.80;;
17991;SDS011;9121;50.926;5.340;2024-02-26T01:04:01;3.73;;;1.70;;
17991;SDS011;9121;50.926;5.340;2024-02-26T01:06:28;1.93;;;1.50;;
17991;SDS011;9121;50.926;5.340;2024-02-26T01:08:55;3.33;;;1.73;;
17991;SDS011;9121;50.926;5.340;2024-02-26T01:11:24;4.53;;;1.90;;
17991;SDS011;9121;50.926;5.340;2024-02-26T01:13:51;2.13;;;1.30;;
17991;SDS011;9121;50.926;5.340;2024-02-26T01:16:21;3.00;;;1.57;;
17991;SDS011;9121;50.926;5.340;2024-02-26T01:18:48;3.20;;;1.57;;
17991;SDS011;9121;50.926;5.340;2024-02-26T01:21:15;5.03;;;1.80;;
17991;SDS011;9121;50.926;5.340;2024-02-26T01:23:42;1.97;;;1.60;;
17991;SDS011;9121;50.926;5.340;2024-02-26T01:26:09;5.90;;;1.70;;
17991;SDS011;9121;50.926;5.340;2024-02-26T01:28:38;3.87;;;1.70;;
17991;SDS011;9121;50.926;5.340;2024-02-26T01:31:05;3.43;;;1.60;;
17991;SDS011;9121;50.926;5.340;2024-02-26T01:33:32;4.53;;;1.77;;
17991;SDS011;9121;50.926;5.340;2024-02-26T01:35:59;5.13;;;2.00;;
17991;SDS011;9121;50.926;5.340;2024-02-26T01:38:27;2.20;;;1.80;;
17991;SDS011;9121;50.926;5.340;2024-02-26T01:40:54;3.50;;;1.63;;
17991;SDS011;9121;50.926;5.340;2024-02-26T01:43:22;7.87;;;1.87;;
17991;SDS011;9121;50.926;5.340;2024-02-26T01:45:50;5.27;;;1.87;;
17991;SDS011;9121;50.926;5.340;2024-02-26T01:48:17;4.50;;;1.90;;
17991;SDS011;9121;50.926;5.340;2024-02-26T01:50:44;3.90;;;1.70;;
17991;SDS011;9121;50.926;5.340;2024-02-26T01:53:11;3.13;;;1.40;;
17991;SDS011;9121;50.926;5.340;2024-02-26T01:55:39;4.07;;;1.87;;
17991;SDS011;9121;50.926;5.340;2024-02-26T01:58:06;6.13;;;1.93;;
17991;SDS011;9121;50.926;5.340;2024-02-26T02:00:33;2.83;;;1.63;;
17991;SDS011;9121;50.926;5.340;2024-02-26T02:03:02;1.83;;;1.30;;
17991;SDS011;9121;50.926;5.340;2024-02-26T02:05:30;2.87;;;1.63;;
17991;SDS011;9121;50.926;5.340;2024-02-26T02:07:57;3.70;;;1.47;;
17991;SDS011;9121;50.926;5.340;2024-02-26T02:10:25;2.13;;;1.37;;
17991;SDS011;9121;50.926;5.340;2024-02-26T02:12:53;2.83;;;1.50;;
17991;SDS011;9121;50.926;5.340;2024-02-26T02:15:20;2.70;;;1.60;;
17991;SDS011;9121;50.926;5.340;2024-02-26T02:17:47;3.67;;;1.60;;
17991;SDS011;9121;50.926;5.340;2024-02-26T02:20:16;3.40;;;2.00;;
17991;SDS011;9121;50.926;5.340;2024-02-26T02:22:45;2.73;;;1.73;;
17991;SDS011;9121;50.926;5.340;2024-02-26T02:25:12;2.40;;;1.60;;
17991;SDS011;9121;50.926;5.340;2024-02-26T02:27:40;3.50;;;1.73;;
17991;SDS011;9121;50.926;5.340;2024-02-26T02:30:07;3.93;;;1.77;;
17991;SDS011;9121;50.926;5.340;2024-02-26T02:32:35;3.87;;;1.87;;
17991;SDS011;9121;50.926;5.340;2024-02-26T02:35:06;3.87;;;2.00;;
17991;SDS011;9121;50.926;5.340;2024-02-26T02:37:33;4.07;;;2.17;;
17991;SDS011;9121;50.926;5.340;2024-02-26T02:40:01;3.40;;;2.10;;
17991;SDS011;9121;50.926;5.340;2024-02-26T02:42:30;4.27;;;2.00;;
17991;SDS011;9121;50.926;5.340;2024-02-26T02:44:57;3.60;;;2.30;;
17991;SDS011;9121;50.926;5.340;2024-02-26T02:47:24;4.93;;;1.87;;
17991;SDS011;9121;50.926;5.340;2024-02-26T02:49:50;4.43;;;2.43;;
17991;SDS011;9121;50.926;5.340;2024-02-26T02:52:17;2.47;;;2.20;;
17991;SDS011;9121;50.926;5.340;2024-02-26T02:54:44;3.90;;;2.60;;
17991;SDS011;9121;50.926;5.340;2024-02-26T02:57:13;3.37;;;2.50;;
17991;SDS011;9121;50.926;5.340;2024-02-26T02:59:40;4.50;;;2.40;;
17991;SDS011;9121;50.926;5.340;2024-02-26T03:02:07;3.20;;;2.37;;
17991;SDS011;9121;50.926;5.340;2024-02-26T03:04:34;2.87;;;2.53;;
17991;SDS011;9121;50.926;5.340;2024-02-26T03:07:01;6.10;;;2.67;;
17991;SDS011;9121;50.926;5.340;2024-02-26T03:09:28;5.90;;;2.50;;
17991;SDS011;9121;50.926;5.340;2024-02-26T03:11:55;3.33;;;2.50;;
17991;SDS011;9121;50.926;5.340;2024-02-26T03:14:23;6.03;;;2.63;;
17991;SDS011;9121;50.926;5.340;2024-02-26T03:16:52;5.97;;;2.40;;
17991;SDS011;9121;50.926;5.340;2024-02-26T03:19:20;5.43;;;2.40;;
17991;SDS011;9121;50.926;5.340;2024-02-26T03:21:47;5.20;;;2.23;;
17991;SDS011;9121;50.926;5.340;2024-02-26T03:24:14;4.27;;;2.50;;
17991;SDS011;9121;50.926;5.340;2024-02-26T03:26:41;3.97;;;2.30;;
17991;SDS011;9121;50.926;5.340;2024-02-26T03:29:08;4.00;;;2.23;;
17991;SDS011;9121;50.926;5.340;2024-02-26T03:31:36;2.93;;;2.17;;
17991;SDS011;9121;50.926;5.340;2024-02-26T03:34:03;1.90;;;1.70;;
17991;SDS011;9121;50.926;5.340;2024-02-26T03:36:30;4.03;;;2.00;;
17991;SDS011;9121;50.926;5.340;2024-02-26T03:38:57;2.13;;;1.70;;
17991;SDS011;9121;50.926;5.340;2024-02-26T03:41:23;2.77;;;1.63;;
17991;SDS011;9121;50.926;5.340;2024-02-26T03:43:51;2.53;;;1.90;;
17991;SDS011;9121;50.926;5.340;2024-02-26T03:46:18;3.43;;;2.10;;
17991;SDS011;9121;50.926;5.340;2024-02-26T03:48:45;3.50;;;2.07;;
17991;SDS011;9121;50.926;5.340;2024-02-26T03:51:12;3.83;;;2.10;;
17991;SDS011;9121;50.926;5.340;2024-02-26T03:53:39;5.07;;;2.20;;
17991;SDS011;9121;50.926;5.340;2024-02-26T03:56:06;5.90;;;2.20;;
17991;SDS011;9121;50.926;5.340;2024-02-26T03:58:33;3.90;;;1.97;;
17991;SDS011;9121;50.926;5.340;2024-02-26T04:01:00;8.20;;;2.27;;
17991;SDS011;9121;50.926;5.340;2024-02-26T04:03:27;2.67;;;1.90;;
17991;SDS011;9121;50.926;5.340;2024-02-26T04:05:55;3.87;;;2.10;;
17991;SDS011;9121;50.926;5.340;2024-02-26T04:08:22;4.00;;;2.00;;
17991;SDS011;9121;50.926;5.340;2024-02-26T04:10:50;3.63;;;2.23;;
17991;SDS011;9121;50.926;5.340;2024-02-26T04:13:17;2.10;;;1.90;;
17991;SDS011;9121;50.926;5.340;2024-02-26T04:15:44;3.13;;;2.20;;
17991;SDS011;9121;50.926;5.340;2024-02-26T04:18:12;3.30;;;2.27;;
17991;SDS011;9121;50.926;5.340;2024-02-26T04:20:39;3.23;;;2.23;;
17991;SDS011;9121;50.926;5.340;2024-02-26T04:23:08;3.73;;;2.60;;
17991;SDS011;9121;50.926;5.340;2024-02-26T04:25:35;3.23;;;2.40;;
17991;SDS011;9121;50.926;5.340;2024-02-26T04:28:02;3.17;;;2.50;;
17991;SDS011;9121;50.926;5.340;2024-02-26T04:30:29;3.00;;;2.40;;
17991;SDS011;9121;50.926;5.340;2024-02-26T04:32:56;3.90;;;2.37;;
17991;SDS011;9121;50.926;5.340;2024-02-26T04:35:23;3.37;;;2.30;;
17991;SDS011;9121;50.926;5.340;2024-02-26T04:37:50;5.47;;;2.73;;
17991;SDS011;9121;50.926;5.340;2024-02-26T04:40:18;4.07;;;2.73;;
17991;SDS011;9121;50.926;5.340;2024-02-26T04:42:45;3.90;;;3.20;;
17991;SDS011;9121;50.926;5.340;2024-02-26T04:45:12;8.07;;;3.97;;
17991;SDS011;9121;50.926;5.340;2024-02-26T04:47:39;5.07;;;3.23;;
17991;SDS011;9121;50.926;5.340;2024-02-26T04:50:06;7.13;;;3.33;;
17991;SDS011;9121;50.926;5.340;2024-02-26T04:52:34;4.23;;;3.30;;
17991;SDS011;9121;50.926;5.340;2024-02-26T04:55:01;3.77;;;2.90;;
17991;SDS011;9121;50.926;5.340;2024-02-26T04:57:29;4.07;;;3.10;;
17991;SDS011;9121;50.926;5.340;2024-02-26T04:59:56;5.50;;;3.40;;
17991;SDS011;9121;50.926;5.340;2024-02-26T05:02:24;5.30;;;3.20;;
17991;SDS011;9121;50.926;5.340;2024-02-26T05:04:51;4.77;;;3.43;;
17991;SDS011;9121;50.926;5.340;2024-02-26T05:07:18;3.50;;;3.10;;
17991;SDS011;9121;50.926;5.340;2024-02-26T05:09:46;4.20;;;3.30;;
17991;SDS011;9121;50.926;5.340;2024-02-26T05:12:14;6.07;;;3.53;;
17991;SDS011;9121;50.926;5.340;2024-02-26T05:14:43;5.33;;;3.40;;
17991;SDS011;9121;50.926;5.340;2024-02-26T05:17:10;4.47;;;3.17;;
17991;SDS011;9121;50.926;5.340;2024-02-26T05:19:36;4.83;;;3.57;;
17991;SDS011;9121;50.926;5.340;2024-02-26T05:22:03;10.90;;;4.57;;
17991;SDS011;9121;50.926;5.340;2024-02-26T05:24:30;5.77;;;3.20;;
17991;SDS011;9121;50.926;5.340;2024-02-26T05:26:57;4.70;;;3.50;;
17991;SDS011;9121;50.926;5.340;2024-02-26T05:29:25;5.90;;;3.60;;
17991;SDS011;9121;50.926;5.340;2024-02-26T05:31:53;4.60;;;3.60;;
17991;SDS011;9121;50.926;5.340;2024-02-26T05:34:20;4.33;;;3.63;;
17991;SDS011;9121;50.926;5.340;2024-02-26T05:36:48;6.13;;;3.40;;
17991;SDS011;9121;50.926;5.340;2024-02-26T05:39:15;4.27;;;3.70;;
17991;SDS011;9121;50.926;5.340;2024-02-26T05:41:42;5.03;;;3.83;;
17991;SDS011;9121;50.926;5.340;2024-02-26T05:44:09;6.47;;;3.60;;
17991;SDS011;9121;50.926;5.340;2024-02-26T05:46:37;5.68;;;4.43;;
17991;SDS011;9121;50.926;5.340;2024-02-26T05:49:05;6.80;;;3.90;;
17991;SDS011;9121;50.926;5.340;2024-02-26T05:51:32;7.67;;;4.27;;
17991;SDS011;9121;50.926;5.340;2024-02-26T05:53:59;5.50;;;4.20;;
17991;SDS011;9121;50.926;5.340;2024-02-26T05:56:26;8.73;;;4.50;;
17991;SDS011;9121;50.926;5.340;2024-02-26T05:58:53;6.53;;;4.53;;
17991;SDS011;9121;50.926;5.340;2024-02-26T06:01:20;8.97;;;5.10;;
17991;SDS011;9121;50.926;5.340;2024-02-26T06:03:47;9.23;;;5.30;;
17991;SDS011;9121;50.926;5.340;2024-02-26T06:06:16;9.50;;;5.63;;
17991;SDS011;9121;50.926;5.340;2024-02-26T06:08:43;11.27;;;6.23;;
17991;SDS011;9121;50.926;5.340;2024-02-26T06:11:10;13.23;;;6.27;;
17991;SDS011;9121;50.926;5.340;2024-02-26T06:13:37;10.20;;;6.07;;
17991;SDS011;9121;50.926;5.340;2024-02-26T06:16:05;13.53;;;6.57;;
17991;SDS011;9121;50.926;5.340;2024-02-26T06:18:32;10.10;;;6.53;;
17991;SDS011;9121;50.926;5.340;2024-02-26T06:20:59;8.00;;;5.97;;
17991;SDS011;9121;50.926;5.340;2024-02-26T06:23:28;10.43;;;6.70;;
17991;SDS011;9121;50.926;5.340;2024-02-26T06:25:55;12.30;;;7.40;;
17991;SDS011;9121;50.926;5.340;2024-02-26T06:28:22;9.60;;;6.70;;
17991;SDS011;9121;50.926;5.340;2024-02-26T06:30:49;10.50;;;6.30;;
17991;SDS011;9121;50.926;5.340;2024-02-26T06:33:17;10.50;;;6.50;;
17991;SDS011;9121;50.926;5.340;2024-02-26T06:35:44;8.40;;;5.93;;
17991;SDS011;9121;50.926;5.340;2024-02-26T06:38:11;10.13;;;6.47;;
17991;SDS011;9121;50.926;5.340;2024-02-26T06:40:40;8.03;;;5.93;;
17991;SDS011;9121;50.926;5.340;2024-02-26T06:43:07;10.20;;;6.07;;
17991;SDS011;9121;50.926;5.340;2024-02-26T06:45:34;14.77;;;6.73;;
17991;SDS011;9121;50.926;5.340;2024-02-26T06:48:01;9.70;;;5.73;;
17991;SDS011;9121;50.926;5.340;2024-02-26T06:50:28;14.30;;;6.47;;
17991;SDS011;9121;50.926;5.340;2024-02-26T06:52:55;11.30;;;6.20;;
17991;SDS011;9121;50.926;5.340;2024-02-26T06:55:22;10.43;;;5.97;;
17991;SDS011;9121;50.926;5.340;2024-02-26T06:57:50;12.33;;;5.83;;
17991;SDS011;9121;50.926;5.340;2024-02-26T07:00:18;9.53;;;5.97;;
17991;SDS011;9121;50.926;5.340;2024-02-26T07:02:45;10.93;;;5.63;;
17991;SDS011;9121;50.926;5.340;2024-02-26T07:05:12;12.33;;;5.73;;
17991;SDS011;9121;50.926;5.340;2024-02-26T07:07:39;8.73;;;5.57;;
17991;SDS011;9121;50.926;5.340;2024-02-26T07:10:06;12.13;;;5.87;;
17991;SDS011;9121;50.926;5.340;2024-02-26T07:12:33;10.07;;;6.17;;
17991;SDS011;9121;50.926;5.340;2024-02-26T07:15:02;9.80;;;5.80;;
17991;SDS011;9121;50.926;5.340;2024-02-26T07:17:29;12.30;;;6.20;;
17991;SDS011;9121;50.926;5.340;2024-02-26T07:19:56;9.17;;;5.47;;
17991;SDS011;9121;50.926;5.340;2024-02-26T07:22:23;9.87;;;5.73;;
17991;SDS011;9121;50.926;5.340;2024-02-26T07:24:50;9.77;;;5.87;;
17991;SDS011;9121;50.926;5.340;2024-02-26T07:27:17;9.63;;;5.97;;
17991;SDS011;9121;50.926;5.340;2024-02-26T07:29:46;9.97;;;6.00;;
17991;SDS011;9121;50.926;5.340;2024-02-26T07:32:14;10.50;;;6.73;;
17991;SDS011;9121;50.926;5.340;2024-02-26T07:34:41;11.73;;;6.53;;
17991;SDS011;9121;50.926;5.340;2024-02-26T07:37:09;12.20;;;5.90;;
17991;SDS011;9121;50.926;5.340;2024-02-26T07:39:36;11.73;;;6.00;;
17991;SDS011;9121;50.926;5.340;2024-02-26T07:42:03;11.37;;;6.40;;
17991;SDS011;9121;50.926;5.340;2024-02-26T07:44:31;10.10;;;6.43;;
17991;SDS011;9121;50.926;5.340;2024-02-26T07:46:59;9.67;;;6.17;;
17991;SDS011;9121;50.926;5.340;2024-02-26T07:49:27;10.37;;;6.30;;
17991;SDS011;9121;50.926;5.340;2024-02-26T07:51:54;13.10;;;6.50;;
17991;SDS011;9121;50.926;5.340;2024-02-26T07:54:23;16.87;;;7.40;;
17991;SDS011;9121;50.926;5.340;2024-02-26T07:56:50;12.13;;;7.77;;
17991;SDS011;9121;50.926;5.340;2024-02-26T07:59:16;13.57;;;7.10;;
17991;SDS011;9121;50.926;5.340;2024-02-26T08:01:44;13.63;;;7.67;;
17991;SDS011;9121;50.926;5.340;2024-02-26T08:04:15;12.77;;;8.10;;
17991;SDS011;9121;50.926;5.340;2024-02-26T08:06:43;11.23;;;7.20;;
17991;SDS011;9121;50.926;5.340;2024-02-26T08:09:10;11.67;;;7.53;;
17991;SDS011;9121;50.926;5.340;2024-02-26T08:11:37;12.23;;;7.13;;
17991;SDS011;9121;50.926;5.340;2024-02-26T08:14:04;12.00;;;7.17;;
17991;SDS011;9121;50.926;5.340;2024-02-26T08:16:32;10.93;;;7.27;;
17991;SDS011;9121;50.926;5.340;2024-02-26T08:18:58;8.83;;;6.30;;
17991;SDS011;9121;50.926;5.340;2024-02-26T08:21:25;12.73;;;7.00;;
17991;SDS011;9121;50.926;5.340;2024-02-26T08:23:54;10.17;;;7.27;;
17991;SDS011;9121;50.926;5.340;2024-02-26T08:26:21;12.73;;;7.77;;
17991;SDS011;9121;50.926;5.340;2024-02-26T08:28:49;11.93;;;7.77;;
17991;SDS011;9121;50.926;5.340;2024-02-26T08:31:16;13.13;;;8.38;;
17991;SDS011;9121;50.926;5.340;2024-02-26T08:33:43;10.57;;;7.40;;
17991;SDS011;9121;50.926;5.340;2024-02-26T08:36:11;10.40;;;7.30;;
17991;SDS011;9121;50.926;5.340;2024-02-26T08:38:38;9.97;;;7.10;;
17991;SDS011;9121;50.926;5.340;2024-02-26T08:41:06;11.33;;;7.80;;
17991;SDS011;9121;50.926;5.340;2024-02-26T08:43:33;13.30;;;7.80;;
17991;SDS011;9121;50.926;5.340;2024-02-26T08:46:00;13.43;;;8.20;;
17991;SDS011;9121;50.926;5.340;2024-02-26T08:48:28;14.10;;;8.53;;
17991;SDS011;9121;50.926;5.340;2024-02-26T08:50:55;10.40;;;8.23;;
17991;SDS011;9121;50.926;5.340;2024-02-26T08:53:21;10.60;;;8.33;;
17991;SDS011;9121;50.926;5.340;2024-02-26T08:55:48;12.27;;;8.33;;
17991;SDS011;9121;50.926;5.340;2024-02-26T08:58:17;11.67;;;8.80;;
17991;SDS011;9121;50.926;5.340;2024-02-26T09:00:45;10.90;;;8.23;;
17991;SDS011;9121;50.926;5.340;2024-02-26T09:03:12;11.57;;;7.90;;
17991;SDS011;9121;50.926;5.340;2024-02-26T09:05:39;10.37;;;7.50;;
17991;SDS011;9121;50.926;5.340;2024-02-26T09:08:06;11.30;;;8.13;;
17991;SDS011;9121;50.926;5.340;2024-02-26T09:10:34;12.10;;;8.00;;
17991;SDS011;9121;50.926;5.340;2024-02-26T09:13:00;11.87;;;8.47;;
17991;SDS011;9121;50.926;5.340;2024-02-26T09:15:29;10.10;;;7.10;;
17991;SDS011;9121;50.926;5.340;2024-02-26T09:17:56;11.20;;;7.23;;
17991;SDS011;9121;50.926;5.340;2024-02-26T09:20:23;10.23;;;7.27;;
17991;SDS011;9121;50.926;5.340;2024-02-26T09:22:50;10.03;;;7.17;;
17991;SDS011;9121;50.926;5.340;2024-02-26T09:25:17;8.50;;;6.50;;
17991;SDS011;9121;50.926;5.340;2024-02-26T09:27:44;9.27;;;6.40;;
17991;SDS011;9121;50.926;5.340;2024-02-26T09:30:13;9.23;;;6.27;;
17991;SDS011;9121;50.926;5.340;2024-02-26T09:32:45;8.63;;;6.03;;
17991;SDS011;9121;50.926;5.340;2024-02-26T09:35:13;8.17;;;5.63;;
17991;SDS011;9121;50.926;5.340;2024-02-26T09:37:40;7.27;;;5.53;;
17991;SDS011;9121;50.926;5.340;2024-02-26T09:40:09;8.73;;;5.57;;
17991;SDS011;9121;50.926;5.340;2024-02-26T09:42:37;6.80;;;5.13;;
17991;SDS011;9121;50.926;5.340;2024-02-26T09:45:10;9.17;;;5.57;;
17991;SDS011;9121;50.926;5.340;2024-02-26T09:47:38;7.20;;;5.20;;
17991;SDS011;9121;50.926;5.340;2024-02-26T09:50:09;6.80;;;5.30;;
17991;SDS011;9121;50.926;5.340;2024-02-26T09:52:39;7.00;;;5.23;;
17991;SDS011;9121;50.926;5.340;2024-02-26T09:55:07;8.20;;;5.10;;
17991;SDS011;9121;50.926;5.340;2024-02-26T09:57:35;5.90;;;4.87;;
17991;SDS011;9121;50.926;5.340;2024-02-26T10:00:04;7.63;;;4.97;;
17991;SDS011;9121;50.926;5.340;2024-02-26T10:02:35;9.83;;;5.40;;
17991;SDS011;9121;50.926;5.340;2024-02-26T10:05:04;8.73;;;6.03;;
17991;SDS011;9121;50.926;5.340;2024-02-26T10:07:34;7.63;;;5.37;;
17991;SDS011;9121;50.926;5.340;2024-02-26T10:10:02;8.07;;;5.63;;
17991;SDS011;9121;50.926;5.340;2024-02-26T10:12:30;8.23;;;5.90;;
17991;SDS011;9121;50.926;5.340;2024-02-26T10:14:58;9.07;;;5.73;;
17991;SDS011;9121;50.926;5.340;2024-02-26T10:17:25;9.67;;;6.13;;
17991;SDS011;9121;50.926;5.340;2024-02-26T10:19:53;10.13;;;5.93;;
17991;SDS011;9121;50.926;5.340;2024-02-26T10:22:21;10.50;;;6.57;;
17991;SDS011;9121;50.926;5.340;2024-02-26T10:24:50;6.90;;;5.37;;
17991;SDS011;9121;50.926;5.340;2024-02-26T10:27:17;15.53;;;6.37;;
17991;SDS011;9121;50.926;5.340;2024-02-26T10:29:45;6.90;;;5.77;;
17991;SDS011;9121;50.926;5.340;2024-02-26T10:32:12;8.13;;;6.33;;
17991;SDS011;9121;50.926;5.340;2024-02-26T10:34:40;11.27;;;6.80;;
17991;SDS011;9121;50.926;5.340;2024-02-26T10:37:07;6.93;;;5.47;;
17991;SDS011;9121;50.926;5.340;2024-02-26T10:39:36;7.23;;;5.93;;
17991;SDS011;9121;50.926;5.340;2024-02-26T10:42:05;7.97;;;5.97;;
17991;SDS011;9121;50.926;5.340;2024-02-26T10:44:39;9.70;;;6.80;;
17991;SDS011;9121;50.926;5.340;2024-02-26T10:47:08;8.57;;;6.30;;
17991;SDS011;9121;50.926;5.340;2024-02-26T10:49:35;7.13;;;5.93;;
17991;SDS011;9121;50.926;5.340;2024-02-26T10:52:02;7.93;;;5.60;;
17991;SDS011;9121;50.926;5.340;2024-02-26T10:54:32;9.63;;;5.40;;
17991;SDS011;9121;50.926;5.340;2024-02-26T10:57:01;8.70;;;6.23;;
17991;SDS011;9121;50.926;5.340;2024-02-26T10:59:31;7.87;;;5.90;;
17991;SDS011;9121;50.926;5.340;2024-02-26T11:02:00;9.53;;;5.87;;
17991;SDS011;9121;50.926;5.340;2024-02-26T11:04:27;12.03;;;6.30;;
17991;SDS011;9121;50.926;5.340;2024-02-26T11:06:58;8.07;;;5.97;;
17991;SDS011;9121;50.926;5.340;2024-02-26T11:09:26;9.40;;;6.33;;
17991;SDS011;9121;50.926;5.340;2024-02-26T11:11:54;9.20;;;6.50;;
17991;SDS011;9121;50.926;5.340;2024-02-26T11:14:23;9.37;;;6.63;;
17991;SDS011;9121;50.926;5.340;2024-02-26T11:16:51;9.73;;;6.57;;
17991;SDS011;9121;50.926;5.340;2024-02-26T11:19:20;9.03;;;7.00;;
17991;SDS011;9121;50.926;5.340;2024-02-26T11:21:47;10.40;;;6.60;;
17991;SDS011;9121;50.926;5.340;2024-02-26T11:24:15;12.77;;;6.67;;
17991;SDS011;9121;50.926;5.340;2024-02-26T11:26:45;9.80;;;7.40;;
17991;SDS011;9121;50.926;5.340;2024-02-26T11:29:17;9.30;;;7.20;;
17991;SDS011;9121;50.926;5.340;2024-02-26T11:31:48;8.87;;;7.00;;
17991;SDS011;9121;50.926;5.340;2024-02-26T11:34:16;8.77;;;6.80;;
17991;SDS011;9121;50.926;5.340;2024-02-26T11:36:44;10.63;;;7.50;;
17991;SDS011;9121;50.926;5.340;2024-02-26T11:39:11;10.03;;;7.73;;
17991;SDS011;9121;50.926;5.340;2024-02-26T11:41:41;10.87;;;7.80;;
17991;SDS011;9121;50.926;5.340;2024-02-26T11:44:08;9.80;;;7.50;;
17991;SDS011;9121;50.926;5.340;2024-02-26T11:46:38;9.20;;;7.40;;
17991;SDS011;9121;50.926;5.340;2024-02-26T11:52:00;10.63;;;8.17;;
17991;SDS011;9121;50.926;5.340;2024-02-26T11:54:38;10.47;;;8.13;;
17991;SDS011;9121;50.926;5.340;2024-02-26T11:57:25;12.47;;;8.00;;
17991;SDS011;9121;50.926;5.340;2024-02-26T11:59:54;10.43;;;7.77;;
17991;SDS011;9121;50.926;5.340;2024-02-26T12:02:40;10.03;;;7.60;;
17991;SDS011;9121;50.926;5.340;2024-02-26T12:05:12;8.47;;;7.00;;
17991;SDS011;9121;50.926;5.340;2024-02-26T12:07:42;10.50;;;7.50;;
17991;SDS011;9121;50.926;5.340;2024-02-26T12:10:15;7.97;;;6.80;;
17991;SDS011;9121;50.926;5.340;2024-02-26T12:12:42;10.23;;;7.47;;
17991;SDS011;9121;50.926;5.340;2024-02-26T12:15:09;8.63;;;6.83;;
17991;SDS011;9121;50.926;5.340;2024-02-26T12:17:37;11.37;;;7.17;;
17991;SDS011;9121;50.926;5.340;2024-02-26T12:20:08;8.90;;;7.20;;
17991;SDS011;9121;50.926;5.340;2024-02-26T12:22:37;9.37;;;7.23;;
17991;SDS011;9121;50.926;5.340;2024-02-26T12:25:06;8.53;;;6.57;;
17991;SDS011;9121;50.926;5.340;2024-02-26T12:27:35;9.60;;;6.90;;
17991;SDS011;9121;50.926;5.340;2024-02-26T12:30:02;9.90;;;7.53;;
17991;SDS011;9121;50.926;5.340;2024-02-26T12:32:29;8.33;;;6.87;;
17991;SDS011;9121;50.926;5.340;2024-02-26T12:34:56;9.27;;;7.17;;
17991;SDS011;9121;50.926;5.340;2024-02-26T12:37:25;9.37;;;7.33;;
17991;SDS011;9121;50.926;5.340;2024-02-26T12:39:53;10.30;;;7.93;;
17991;SDS011;9121;50.926;5.340;2024-02-26T12:42:20;8.33;;;6.60;;
17991;SDS011;9121;50.926;5.340;2024-02-26T12:44:49;8.97;;;7.13;;
17991;SDS011;9121;50.926;5.340;2024-02-26T12:47:16;9.37;;;6.83;;
17991;SDS011;9121;50.926;5.340;2024-02-26T12:49:45;7.10;;;6.23;;
17991;SDS011;9121;50.926;5.340;2024-02-26T12:52:13;8.60;;;6.37;;
17991;SDS011;9121;50.926;5.340;2024-02-26T12:54:41;8.80;;;5.77;;
17991;SDS011;9121;50.926;5.340;2024-02-26T12:57:10;6.93;;;5.50;;
17991;SDS011;9121;50.926;5.340;2024-02-26T12:59:37;7.20;;;5.20;;
17991;SDS011;9121;50.926;5.340;2024-02-26T13:02:04;6.57;;;5.57;;
17991;SDS011;9121;50.926;5.340;2024-02-26T13:04:31;6.37;;;5.40;;
17991;SDS011;9121;50.926;5.340;2024-02-26T13:06:59;7.67;;;5.40;;
17991;SDS011;9121;50.926;5.340;2024-02-26T13:09:32;6.73;;;5.40;;
17991;SDS011;9121;50.926;5.340;2024-02-26T13:11:59;9.07;;;5.90;;
17991;SDS011;9121;50.926;5.340;2024-02-26T13:14:31;6.50;;;5.20;;
17991;SDS011;9121;50.926;5.340;2024-02-26T13:16:59;6.83;;;5.90;;
17991;SDS011;9121;50.926;5.340;2024-02-26T13:19:26;7.80;;;6.07;;
17991;SDS011;9121;50.926;5.340;2024-02-26T13:21:54;7.57;;;6.10;;
17991;SDS011;9121;50.926;5.340;2024-02-26T13:24:21;9.13;;;6.70;;
17991;SDS011;9121;50.926;5.340;2024-02-26T13:26:53;8.80;;;6.60;;
17991;SDS011;9121;50.926;5.340;2024-02-26T13:29:21;8.50;;;7.07;;
17991;SDS011;9121;50.926;5.340;2024-02-26T13:31:54;8.27;;;6.73;;
17991;SDS011;9121;50.926;5.340;2024-02-26T13:34:25;8.93;;;7.83;;
17991;SDS011;9121;50.926;5.340;2024-02-26T13:36:53;11.50;;;8.60;;
17991;SDS011;9121;50.926;5.340;2024-02-26T13:39:23;19.23;;;13.27;;
17991;SDS011;9121;50.926;5.340;2024-02-26T13:41:50;12.93;;;9.63;;
17991;SDS011;9121;50.926;5.340;2024-02-26T13:44:18;14.53;;;10.57;;
17991;SDS011;9121;50.926;5.340;2024-02-26T13:46:45;12.80;;;10.50;;
17991;SDS011;9121;50.926;5.340;2024-02-26T13:49:14;15.03;;;10.63;;
17991;SDS011;9121;50.926;5.340;2024-02-26T13:51:41;14.03;;;10.87;;
17991;SDS011;9121;50.926;5.340;2024-02-26T13:54:08;13.97;;;11.17;;
17991;SDS011;9121;50.926;5.340;2024-02-26T13:56:35;18.43;;;12.37;;
17991;SDS011;9121;50.926;5.340;2024-02-26T13:59:04;19.17;;;13.10;;
17991;SDS011;9121;50.926;5.340;2024-02-26T14:01:32;16.73;;;12.90;;
17991;SDS011;9121;50.926;5.340;2024-02-26T14:03:59;17.43;;;12.63;;
17991;SDS011;9121;50.926;5.340;2024-02-26T14:06:31;16.87;;;13.03;;
17991;SDS011;9121;50.926;5.340;2024-02-26T14:08:58;18.77;;;12.97;;
17991;SDS011;9121;50.926;5.340;2024-02-26T14:11:25;20.40;;;14.33;;
17991;SDS011;9121;50.926;5.340;2024-02-26T14:13:54;16.37;;;13.07;;
17991;SDS011;9121;50.926;5.340;2024-02-26T14:16:21;21.20;;;14.27;;
17991;SDS011;9121;50.926;5.340;2024-02-26T14:18:48;17.83;;;13.57;;
17991;SDS011;9121;50.926;5.340;2024-02-26T14:21:14;17.90;;;13.40;;
17991;SDS011;9121;50.926;5.340;2024-02-26T14:23:43;18.50;;;13.40;;
17991;SDS011;9121;50.926;5.340;2024-02-26T14:26:10;18.67;;;14.17;;
17991;SDS011;9121;50.926;5.340;2024-02-26T14:28:37;19.13;;;14.03;;
17991;SDS011;9121;50.926;5.340;2024-02-26T14:31:05;24.17;;;14.77;;
17991;SDS011;9121;50.926;5.340;2024-02-26T14:33:37;20.43;;;15.20;;
17991;SDS011;9121;50.926;5.340;2024-02-26T14:36:06;19.87;;;15.03;;
17991;SDS011;9121;50.926;5.340;2024-02-26T14:38:33;20.17;;;14.63;;
17991;SDS011;9121;50.926;5.340;2024-02-26T14:41:01;19.23;;;14.40;;
17991;SDS011;9121;50.926;5.340;2024-02-26T14:43:28;20.30;;;14.13;;
17991;SDS011;9121;50.926;5.340;2024-02-26T14:45:57;19.10;;;14.10;;
17991;SDS011;9121;50.926;5.340;2024-02-26T14:48:24;21.90;;;14.67;;
17991;SDS011;9121;50.926;5.340;2024-02-26T14:50:51;19.17;;;13.77;;
17991;SDS011;9121;50.926;5.340;2024-02-26T14:53:18;17.07;;;13.37;;
17991;SDS011;9121;50.926;5.340;2024-02-26T14:55:45;20.83;;;14.13;;
17991;SDS011;9121;50.926;5.340;2024-02-26T14:58:14;18.87;;;12.73;;
17991;SDS011;9121;50.926;5.340;2024-02-26T15:00:41;18.60;;;12.93;;